createdAt,value
2017-04-22T00:00:24.759Z,13.83
2017-04-22T00:00:50.841Z,13.85
2017-04-22T00:01:16.969Z,13.85
2017-04-22T00:01:43.121Z,13.85
2017-04-22T00:02:09.277Z,13.74
2017-04-22T00:02:35.361Z,13.83
2017-04-22T00:03:01.466Z,13.77
2017-04-22T00:03:27.571Z,13.78
2017-04-22T00:03:53.676Z,13.77
2017-04-22T00:04:19.809Z,13.74
2017-04-22T00:04:45.893Z,13.6
2017-04-22T00:05:12.039Z,13.7
2017-04-22T00:05:38.122Z,13.68
2017-04-22T00:06:04.362Z,13.62
2017-04-22T00:06:30.442Z,13.63
2017-04-22T00:06:56.523Z,13.59
2017-04-22T00:07:22.631Z,13.57
2017-04-22T00:07:48.717Z,13.71
2017-04-22T00:08:14.845Z,13.67
2017-04-22T00:08:40.929Z,13.75
2017-04-22T00:09:07.032Z,13.79
2017-04-22T00:09:33.133Z,13.77
2017-04-22T00:09:59.238Z,13.85
2017-04-22T00:10:25.350Z,13.79
2017-04-22T00:10:51.429Z,13.74
2017-04-22T00:11:17.580Z,13.78
2017-04-22T00:11:43.685Z,13.7
2017-04-22T00:12:09.811Z,13.77
2017-04-22T00:12:35.874Z,13.71
2017-04-22T00:13:02.071Z,13.72
2017-04-22T00:13:28.224Z,13.62
2017-04-22T00:13:54.330Z,13.67
2017-04-22T00:14:20.756Z,13.62
2017-04-22T00:14:46.909Z,13.6
2017-04-22T00:15:13.038Z,13.62
2017-04-22T00:15:39.122Z,13.65
2017-04-22T00:16:05.227Z,13.63
2017-04-22T00:16:31.582Z,13.68
2017-04-22T00:16:57.689Z,13.49
2017-04-22T00:17:23.797Z,13.56
2017-04-22T00:17:49.880Z,13.62
2017-04-22T00:18:16.011Z,13.57
2017-04-22T00:18:42.166Z,13.56
2017-04-22T00:19:08.247Z,13.5
2017-04-22T00:19:34.353Z,13.54
2017-04-22T00:20:00.435Z,13.54
2017-04-22T00:20:26.516Z,13.5
2017-04-22T00:20:52.601Z,13.57
2017-04-22T00:21:18.687Z,13.5
2017-04-22T00:21:44.795Z,13.59
2017-04-22T00:22:11.019Z,13.6
2017-04-22T00:22:37.037Z,13.71
2017-04-22T00:23:03.144Z,13.63
2017-04-22T00:23:29.253Z,13.71
2017-04-22T00:23:55.335Z,13.67
2017-04-22T00:24:21.440Z,13.63
2017-04-22T00:24:47.523Z,13.62
2017-04-22T00:25:13.628Z,13.52
2017-04-22T00:25:39.711Z,13.47
2017-04-22T00:26:05.818Z,13.39
2017-04-22T00:26:31.923Z,13.44
2017-04-22T00:26:58.014Z,13.41
2017-04-22T00:27:24.131Z,13.47
2017-04-22T00:27:50.214Z,13.42
2017-04-22T00:28:16.342Z,13.41
2017-04-22T00:28:42.448Z,13.35
2017-04-22T00:29:08.621Z,13.31
2017-04-22T00:29:34.728Z,13.25
2017-04-22T00:30:00.810Z,13.3
2017-04-22T00:30:26.891Z,13.22
2017-04-22T00:30:52.975Z,13.28
2017-04-22T00:31:19.082Z,13.25
2017-04-22T00:31:45.168Z,13.28
2017-04-22T00:32:11.252Z,13.16
2017-04-22T00:32:37.490Z,13.19
2017-04-22T00:33:03.614Z,13.12
2017-04-22T00:33:29.719Z,13.15
2017-04-22T00:33:55.849Z,13.04
2017-04-22T00:34:21.955Z,13.08
2017-04-22T00:34:48.062Z,13.15
2017-04-22T00:35:14.192Z,13.04
2017-04-22T00:35:40.274Z,13.11
2017-04-22T00:36:06.401Z,13.05
2017-04-22T00:36:32.506Z,13.08
2017-04-22T00:36:58.610Z,13.04
2017-04-22T00:37:24.698Z,13.11
2017-04-22T00:37:50.800Z,13.11
2017-04-22T00:38:16.934Z,12.98
2017-04-22T00:38:43.093Z,13.11
2017-04-22T00:39:09.268Z,13.08
2017-04-22T00:39:35.445Z,13.12
2017-04-22T00:40:01.528Z,13.12
2017-04-22T00:40:27.652Z,13.11
2017-04-22T00:40:53.759Z,13.08
2017-04-22T00:41:19.857Z,13.01
2017-04-22T00:41:46.099Z,13.03
2017-04-22T00:42:12.231Z,13.05
2017-04-22T00:42:38.340Z,12.97
2017-04-22T00:43:04.486Z,12.93
2017-04-22T00:43:30.623Z,12.97
2017-04-22T00:43:56.775Z,12.82
2017-04-22T00:44:22.884Z,12.78
2017-04-22T00:44:49.176Z,12.7
2017-04-22T00:45:15.269Z,12.78
2017-04-22T00:45:41.398Z,12.61
2017-04-22T00:46:07.496Z,12.6
2017-04-22T00:46:33.579Z,12.6
2017-04-22T00:46:59.691Z,12.53
2017-04-22T00:47:25.796Z,12.47
2017-04-22T00:47:51.948Z,12.5
2017-04-22T00:48:18.075Z,12.47
2017-04-22T00:48:44.227Z,12.49
2017-04-22T00:49:10.356Z,12.49
2017-04-22T00:49:36.485Z,12.49
2017-04-22T00:50:02.613Z,12.43
2017-04-22T00:50:28.745Z,12.47
2017-04-22T00:50:54.826Z,12.45
2017-04-22T00:51:20.912Z,12.39
2017-04-22T00:51:46.994Z,12.37
2017-04-22T00:52:13.073Z,12.32
2017-04-22T00:52:39.179Z,12.4
2017-04-22T00:53:05.312Z,12.27
2017-04-22T00:53:31.396Z,12.25
2017-04-22T00:53:57.652Z,12.2
2017-04-22T00:54:23.781Z,12.06
2017-04-22T00:54:49.865Z,12.2
2017-04-22T00:55:15.970Z,12.09
2017-04-22T00:55:42.079Z,12.15
2017-04-22T00:56:08.160Z,12.12
2017-04-22T00:56:34.288Z,12.09
2017-04-22T00:57:00.369Z,12.09
2017-04-22T00:57:26.499Z,12.1
2017-04-22T00:57:52.608Z,12.17
2017-04-22T00:58:18.758Z,12.17
2017-04-22T00:58:44.887Z,12.24
2017-04-22T00:59:10.992Z,12.21
2017-04-22T00:59:37.075Z,12.06
2017-04-22T01:00:03.199Z,12.13
2017-04-22T01:00:29.307Z,12.07
2017-04-22T01:00:55.387Z,12.13
2017-04-22T01:01:21.473Z,12.1
2017-04-22T01:01:47.580Z,12.13
2017-04-22T01:02:13.665Z,11.99
2017-04-22T01:02:39.769Z,12.06
2017-04-22T01:03:05.851Z,11.94
2017-04-22T01:03:31.958Z,11.88
2017-04-22T01:03:58.099Z,11.9
2017-04-22T01:04:24.240Z,11.86
2017-04-22T01:04:50.344Z,11.86
2017-04-22T01:05:16.472Z,11.95
2017-04-22T01:05:42.557Z,11.95
2017-04-22T01:06:08.688Z,11.9
2017-04-22T01:06:34.791Z,11.86
2017-04-22T01:07:00.870Z,11.83
2017-04-22T01:07:27.000Z,11.75
2017-04-22T01:07:53.082Z,11.81
2017-04-22T01:08:19.192Z,11.8
2017-04-22T01:08:45.302Z,11.81
2017-04-22T01:09:11.427Z,11.77
2017-04-22T01:09:37.536Z,11.77
2017-04-22T01:10:03.643Z,11.8
2017-04-22T01:10:29.727Z,11.77
2017-04-22T01:10:55.854Z,11.73
2017-04-22T01:11:21.958Z,11.75
2017-04-22T01:11:48.059Z,11.78
2017-04-22T01:12:14.203Z,11.83
2017-04-22T01:12:40.333Z,11.8
2017-04-22T01:13:06.464Z,11.87
2017-04-22T01:13:32.594Z,11.88
2017-04-22T01:13:58.724Z,11.86
2017-04-22T01:14:24.840Z,11.83
2017-04-22T01:14:50.967Z,11.84
2017-04-22T01:15:17.051Z,11.86
2017-04-22T01:15:43.134Z,11.84
2017-04-22T01:16:09.242Z,11.78
2017-04-22T01:16:35.349Z,11.73
2017-04-22T01:17:01.428Z,11.73
2017-04-22T01:17:27.533Z,11.81
2017-04-22T01:17:53.640Z,11.66
2017-04-22T01:18:19.797Z,11.68
2017-04-22T01:18:45.920Z,11.66
2017-04-22T01:19:12.046Z,11.66
2017-04-22T01:19:38.130Z,11.63
2017-04-22T01:20:04.415Z,11.7
2017-04-22T01:20:30.496Z,11.69
2017-04-22T01:20:56.578Z,11.77
2017-04-22T01:21:22.657Z,11.78
2017-04-22T01:21:48.741Z,11.75
2017-04-22T01:22:14.825Z,11.77
2017-04-22T01:22:40.929Z,11.77
2017-04-22T01:23:07.016Z,11.75
2017-04-22T01:23:33.094Z,11.81
2017-04-22T01:23:59.224Z,11.75
2017-04-22T01:24:25.376Z,11.8
2017-04-22T01:24:51.502Z,11.8
2017-04-22T01:25:17.610Z,11.83
2017-04-22T01:25:43.788Z,11.84
2017-04-22T01:26:09.867Z,11.81
2017-04-22T01:26:35.952Z,11.87
2017-04-22T01:27:02.037Z,11.86
2017-04-22T01:27:28.118Z,11.83
2017-04-22T01:27:54.270Z,11.83
2017-04-22T01:28:20.398Z,11.83
2017-04-22T01:28:46.519Z,11.8
2017-04-22T01:29:12.648Z,11.8
2017-04-22T01:29:38.758Z,11.69
2017-04-22T01:30:04.842Z,11.68
2017-04-22T01:30:31.044Z,11.63
2017-04-22T01:30:57.122Z,11.59
2017-04-22T01:31:23.231Z,11.59
2017-04-22T01:31:49.338Z,11.66
2017-04-22T01:32:15.421Z,11.63
2017-04-22T01:32:41.569Z,11.7
2017-04-22T01:33:07.695Z,11.68
2017-04-22T01:33:33.822Z,11.66
2017-04-22T01:33:59.974Z,11.66
2017-04-22T01:34:26.102Z,11.66
2017-04-22T01:34:52.230Z,11.7
2017-04-22T01:35:18.359Z,11.68
2017-04-22T01:35:44.485Z,11.72
2017-04-22T01:36:10.592Z,11.65
2017-04-22T01:36:36.701Z,11.57
2017-04-22T01:37:02.831Z,11.5
2017-04-22T01:37:28.938Z,11.5
2017-04-22T01:37:55.045Z,11.5
2017-04-22T01:38:21.172Z,11.45
2017-04-22T01:38:47.278Z,11.51
2017-04-22T01:39:13.383Z,11.47
2017-04-22T01:39:39.488Z,11.43
2017-04-22T01:40:05.612Z,11.25
2017-04-22T01:40:31.798Z,11.26
2017-04-22T01:40:57.882Z,11.25
2017-04-22T01:41:23.964Z,11.22
2017-04-22T01:41:50.043Z,11.18
2017-04-22T01:42:16.152Z,11.11
2017-04-22T01:42:42.237Z,11.14
2017-04-22T01:43:08.413Z,11.15
2017-04-22T01:43:34.517Z,11.12
2017-04-22T01:44:00.625Z,11.11
2017-04-22T01:44:26.755Z,11.19
2017-04-22T01:44:52.862Z,11.25
2017-04-22T01:45:19.031Z,11.26
2017-04-22T01:45:45.113Z,11.3
2017-04-22T01:46:11.219Z,11.3
2017-04-22T01:46:37.301Z,11.27
2017-04-22T01:47:03.385Z,11.23
2017-04-22T01:47:29.574Z,11.32
2017-04-22T01:47:55.657Z,11.32
2017-04-22T01:48:21.787Z,11.36
2017-04-22T01:48:47.892Z,11.4
2017-04-22T01:49:14.020Z,11.36
2017-04-22T01:49:40.160Z,11.43
2017-04-22T01:50:06.262Z,11.43
2017-04-22T01:50:32.393Z,11.4
2017-04-22T01:50:58.494Z,11.36
2017-04-22T01:51:24.597Z,11.37
2017-04-22T01:51:50.728Z,11.44
2017-04-22T01:52:16.809Z,11.47
2017-04-22T01:52:42.895Z,11.32
2017-04-22T01:53:09.022Z,11.45
2017-04-22T01:53:35.105Z,11.47
2017-04-22T01:54:01.210Z,11.4
2017-04-22T01:54:27.293Z,11.47
2017-04-22T01:54:53.397Z,11.41
2017-04-22T01:55:19.501Z,11.41
2017-04-22T01:55:45.633Z,11.36
2017-04-22T01:56:11.782Z,11.4
2017-04-22T01:56:37.866Z,11.4
2017-04-22T01:57:03.997Z,11.36
2017-04-22T01:57:30.102Z,11.44
2017-04-22T01:57:56.206Z,11.45
2017-04-22T01:58:22.313Z,11.41
2017-04-22T01:58:48.418Z,11.36
2017-04-22T01:59:14.568Z,11.36
2017-04-22T01:59:40.674Z,11.36
2017-04-22T02:00:06.801Z,11.33
2017-04-22T02:00:32.888Z,11.41
2017-04-22T02:00:59.001Z,11.5
2017-04-22T02:01:25.128Z,11.52
2017-04-22T02:01:51.210Z,11.57
2017-04-22T02:02:17.296Z,11.5
2017-04-22T02:02:43.404Z,11.51
2017-04-22T02:03:09.558Z,11.52
2017-04-22T02:03:35.640Z,11.54
2017-04-22T02:04:01.747Z,11.5
2017-04-22T02:04:27.909Z,11.47
2017-04-22T02:04:54.037Z,11.47
2017-04-22T02:05:20.139Z,11.45
2017-04-22T02:05:46.225Z,11.48
2017-04-22T02:06:12.306Z,11.51
2017-04-22T02:06:38.387Z,11.55
2017-04-22T02:07:04.470Z,11.52
2017-04-22T02:07:30.578Z,11.5
2017-04-22T02:07:56.753Z,11.48
2017-04-22T02:08:22.881Z,11.48
2017-04-22T02:08:49.009Z,11.51
2017-04-22T02:09:15.136Z,11.5
2017-04-22T02:09:41.265Z,11.45
2017-04-22T02:10:07.395Z,11.43
2017-04-22T02:10:33.502Z,11.44
2017-04-22T02:10:59.668Z,11.29
2017-04-22T02:11:25.771Z,11.25
2017-04-22T02:11:51.851Z,11.32
2017-04-22T02:12:18.022Z,11.32
2017-04-22T02:12:44.128Z,11.35
2017-04-22T02:13:10.256Z,11.33
2017-04-22T02:13:36.339Z,11.4
2017-04-22T02:14:02.443Z,11.29
2017-04-22T02:14:28.571Z,11.35
2017-04-22T02:14:54.654Z,11.25
2017-04-22T02:15:20.735Z,11.27
2017-04-22T02:15:46.841Z,11.25
2017-04-22T02:16:12.921Z,11.27
2017-04-22T02:16:39.002Z,11.27
2017-04-22T02:17:05.084Z,11.29
2017-04-22T02:17:31.210Z,11.15
2017-04-22T02:17:57.317Z,11.15
2017-04-22T02:18:23.424Z,11.14
2017-04-22T02:18:49.548Z,11.17
2017-04-22T02:19:15.653Z,11.22
2017-04-22T02:19:41.758Z,11.29
2017-04-22T02:20:07.862Z,11.29
2017-04-22T02:20:33.943Z,11.29
2017-04-22T02:21:00.023Z,11.32
2017-04-22T02:21:26.102Z,11.29
2017-04-22T02:21:52.210Z,11.26
2017-04-22T02:22:18.316Z,11.35
2017-04-22T02:22:44.398Z,11.3
2017-04-22T02:23:10.503Z,11.3
2017-04-22T02:23:36.606Z,11.29
2017-04-22T02:24:02.732Z,11.45
2017-04-22T02:24:28.838Z,11.37
2017-04-22T02:24:54.944Z,11.37
2017-04-22T02:25:21.051Z,11.37
2017-04-22T02:25:47.136Z,11.37
2017-04-22T02:26:13.217Z,11.3
2017-04-22T02:26:39.342Z,11.32
2017-04-22T02:27:05.422Z,11.22
2017-04-22T02:27:31.503Z,11.3
2017-04-22T02:27:57.611Z,11.19
2017-04-22T02:28:23.739Z,11.26
2017-04-22T02:28:49.842Z,11.27
2017-04-22T02:29:15.970Z,11.25
2017-04-22T02:29:42.075Z,11.29
2017-04-22T02:30:08.180Z,11.25
2017-04-22T02:30:34.291Z,11.25
2017-04-22T02:31:00.374Z,11.26
2017-04-22T02:31:26.457Z,11.25
2017-04-22T02:31:52.563Z,11.25
2017-04-22T02:32:18.668Z,11.23
2017-04-22T02:32:44.795Z,11.19
2017-04-22T02:33:10.875Z,11.15
2017-04-22T02:33:36.980Z,11.11
2017-04-22T02:34:03.147Z,11.1
2017-04-22T02:34:29.229Z,11
2017-04-22T02:34:55.333Z,10.96
2017-04-22T02:35:21.461Z,11.05
2017-04-22T02:35:47.562Z,11.11
2017-04-22T02:36:13.690Z,11.02
2017-04-22T02:36:39.800Z,10.96
2017-04-22T02:37:05.900Z,11.08
2017-04-22T02:37:32.005Z,11.08
2017-04-22T02:37:58.110Z,11.11
2017-04-22T02:38:24.215Z,11.11
2017-04-22T02:38:50.344Z,10.99
2017-04-22T02:39:16.472Z,10.92
2017-04-22T02:39:42.557Z,10.99
2017-04-22T02:40:08.642Z,10.96
2017-04-22T02:40:34.774Z,11.04
2017-04-22T02:41:00.881Z,11.02
2017-04-22T02:41:26.986Z,11
2017-04-22T02:41:53.065Z,10.94
2017-04-22T02:42:19.166Z,10.97
2017-04-22T02:42:45.250Z,10.84
2017-04-22T02:43:11.355Z,10.92
2017-04-22T02:43:37.439Z,10.87
2017-04-22T02:44:03.568Z,10.9
2017-04-22T02:44:29.652Z,10.92
2017-04-22T02:44:55.729Z,10.99
2017-04-22T02:45:21.835Z,10.9
2017-04-22T02:45:47.917Z,10.97
2017-04-22T02:46:14.016Z,10.89
2017-04-22T02:46:40.096Z,10.87
2017-04-22T02:47:06.177Z,10.96
2017-04-22T02:47:32.303Z,10.93
2017-04-22T02:47:58.405Z,10.94
2017-04-22T02:48:24.487Z,10.9
2017-04-22T02:48:50.632Z,10.94
2017-04-22T02:49:16.763Z,10.97
2017-04-22T02:49:42.868Z,10.97
2017-04-22T02:50:08.950Z,10.97
2017-04-22T02:50:35.054Z,10.99
2017-04-22T02:51:01.158Z,11.02
2017-04-22T02:51:27.263Z,11.02
2017-04-22T02:51:53.433Z,11.1
2017-04-22T02:52:19.588Z,11.14
2017-04-22T02:52:45.692Z,10.96
2017-04-22T02:53:11.822Z,10.99
2017-04-22T02:53:37.998Z,11.08
2017-04-22T02:54:04.111Z,11.07
2017-04-22T02:54:30.254Z,11.1
2017-04-22T02:54:56.382Z,11.1
2017-04-22T02:55:22.488Z,11.11
2017-04-22T02:55:48.570Z,11.12
2017-04-22T02:56:14.697Z,11.08
2017-04-22T02:56:40.777Z,11.1
2017-04-22T02:57:06.861Z,11.11
2017-04-22T02:57:33.059Z,11.05
2017-04-22T02:57:59.164Z,11.14
2017-04-22T02:58:25.312Z,11.11
2017-04-22T02:58:51.418Z,11.02
2017-04-22T02:59:17.529Z,11.1
2017-04-22T02:59:43.635Z,11.07
2017-04-22T03:00:09.736Z,11.12
2017-04-22T03:00:35.818Z,11.15
2017-04-22T03:01:01.898Z,11.12
2017-04-22T03:01:27.983Z,11.11
2017-04-22T03:01:54.068Z,11.02
2017-04-22T03:02:20.175Z,11.1
2017-04-22T03:02:46.327Z,11.05
2017-04-22T03:03:12.458Z,11.11
2017-04-22T03:03:38.542Z,11.15
2017-04-22T03:04:04.625Z,11.15
2017-04-22T03:04:30.752Z,11.04
2017-04-22T03:04:56.855Z,11.07
2017-04-22T03:05:22.935Z,11.12
2017-04-22T03:05:49.043Z,11
2017-04-22T03:06:15.125Z,10.97
2017-04-22T03:06:41.300Z,11
2017-04-22T03:07:07.407Z,10.94
2017-04-22T03:07:33.535Z,11
2017-04-22T03:07:59.660Z,10.96
2017-04-22T03:08:25.788Z,11.04
2017-04-22T03:08:52.087Z,10.97
2017-04-22T03:09:18.193Z,10.99
2017-04-22T03:09:44.322Z,10.99
2017-04-22T03:10:10.608Z,10.9
2017-04-22T03:10:36.691Z,11.04
2017-04-22T03:11:02.794Z,11.04
2017-04-22T03:11:28.910Z,10.99
2017-04-22T03:11:55.015Z,10.92
2017-04-22T03:12:21.118Z,10.94
2017-04-22T03:12:47.249Z,10.87
2017-04-22T03:13:13.353Z,10.93
2017-04-22T03:13:39.504Z,10.92
2017-04-22T03:14:05.611Z,10.86
2017-04-22T03:14:31.716Z,10.82
2017-04-22T03:14:57.799Z,10.89
2017-04-22T03:15:23.903Z,10.86
2017-04-22T03:15:49.984Z,10.9
2017-04-22T03:16:16.068Z,10.84
2017-04-22T03:16:42.152Z,10.81
2017-04-22T03:17:08.231Z,10.93
2017-04-22T03:17:34.337Z,10.84
2017-04-22T03:18:00.441Z,10.81
2017-04-22T03:18:26.521Z,10.9
2017-04-22T03:18:52.652Z,10.94
2017-04-22T03:19:18.744Z,10.81
2017-04-22T03:19:44.891Z,10.81
2017-04-22T03:20:10.997Z,10.84
2017-04-22T03:20:37.095Z,10.84
2017-04-22T03:21:03.198Z,10.87
2017-04-22T03:21:29.294Z,10.82
2017-04-22T03:21:55.377Z,10.87
2017-04-22T03:22:21.481Z,10.89
2017-04-22T03:22:47.585Z,10.87
2017-04-22T03:23:13.688Z,10.86
2017-04-22T03:23:39.796Z,10.82
2017-04-22T03:24:05.922Z,10.81
2017-04-22T03:24:32.026Z,10.84
2017-04-22T03:24:58.308Z,10.92
2017-04-22T03:25:24.416Z,10.87
2017-04-22T03:25:50.518Z,10.86
2017-04-22T03:26:16.600Z,10.89
2017-04-22T03:26:42.704Z,10.81
2017-04-22T03:27:08.789Z,10.78
2017-04-22T03:27:34.894Z,10.86
2017-04-22T03:28:01.000Z,10.89
2017-04-22T03:28:27.174Z,10.87
2017-04-22T03:28:53.305Z,10.84
2017-04-22T03:29:19.435Z,10.94
2017-04-22T03:29:45.564Z,10.82
2017-04-22T03:30:11.648Z,10.89
2017-04-22T03:30:37.727Z,10.89
2017-04-22T03:31:03.969Z,10.81
2017-04-22T03:31:30.050Z,10.86
2017-04-22T03:31:56.128Z,10.84
2017-04-22T03:32:22.235Z,10.78
2017-04-22T03:32:48.341Z,10.79
2017-04-22T03:33:14.495Z,10.86
2017-04-22T03:33:40.599Z,10.84
2017-04-22T03:34:06.728Z,10.94
2017-04-22T03:34:32.861Z,10.94
2017-04-22T03:34:58.987Z,10.82
2017-04-22T03:35:25.094Z,10.93
2017-04-22T03:35:51.199Z,10.86
2017-04-22T03:36:17.378Z,10.9
2017-04-22T03:36:43.483Z,10.93
2017-04-22T03:37:09.589Z,10.94
2017-04-22T03:37:35.669Z,10.99
2017-04-22T03:38:01.776Z,10.96
2017-04-22T03:38:27.856Z,10.97
2017-04-22T03:38:53.941Z,11.05
2017-04-22T03:39:20.047Z,10.97
2017-04-22T03:39:46.176Z,10.96
2017-04-22T03:40:12.303Z,10.93
2017-04-22T03:40:38.410Z,11
2017-04-22T03:41:04.512Z,10.96
2017-04-22T03:41:30.593Z,10.9
2017-04-22T03:41:56.676Z,10.97
2017-04-22T03:42:22.782Z,11.02
2017-04-22T03:42:48.888Z,10.93
2017-04-22T03:43:15.019Z,10.92
2017-04-22T03:43:41.149Z,10.94
2017-04-22T03:44:07.231Z,10.82
2017-04-22T03:44:33.359Z,10.9
2017-04-22T03:44:59.464Z,10.84
2017-04-22T03:45:25.561Z,10.92
2017-04-22T03:45:51.670Z,10.84
2017-04-22T03:46:17.775Z,10.87
2017-04-22T03:46:44.075Z,10.87
2017-04-22T03:47:10.179Z,10.93
2017-04-22T03:47:36.260Z,10.82
2017-04-22T03:48:02.342Z,10.92
2017-04-22T03:48:28.472Z,10.78
2017-04-22T03:48:54.622Z,10.86
2017-04-22T03:49:20.729Z,10.89
2017-04-22T03:49:46.858Z,10.9
2017-04-22T03:50:12.941Z,10.93
2017-04-22T03:50:39.069Z,10.86
2017-04-22T03:51:05.196Z,10.87
2017-04-22T03:51:31.277Z,10.84
2017-04-22T03:51:57.379Z,10.82
2017-04-22T03:52:23.462Z,10.93
2017-04-22T03:52:49.544Z,10.87
2017-04-22T03:53:15.626Z,10.82
2017-04-22T03:53:41.706Z,10.96
2017-04-22T03:54:07.790Z,10.84
2017-04-22T03:54:33.890Z,10.86
2017-04-22T03:54:59.995Z,10.79
2017-04-22T03:55:26.073Z,10.87
2017-04-22T03:55:52.198Z,10.79
2017-04-22T03:56:18.296Z,10.81
2017-04-22T03:56:44.366Z,10.81
2017-04-22T03:57:10.493Z,10.81
2017-04-22T03:57:36.573Z,10.76
2017-04-22T03:58:02.679Z,10.78
2017-04-22T03:58:28.767Z,10.78
2017-04-22T03:58:54.843Z,10.86
2017-04-22T03:59:20.979Z,10.89
2017-04-22T03:59:47.106Z,10.79
2017-04-22T04:00:13.189Z,10.89
2017-04-22T04:00:39.615Z,10.79
2017-04-22T04:01:05.696Z,10.84
2017-04-22T04:01:31.802Z,10.94
2017-04-22T04:01:57.883Z,10.86
2017-04-22T04:02:23.989Z,10.87
2017-04-22T04:02:50.097Z,10.89
2017-04-22T04:03:16.397Z,10.79
2017-04-22T04:03:42.504Z,10.86
2017-04-22T04:04:08.586Z,10.94
2017-04-22T04:04:34.691Z,10.82
2017-04-22T04:05:00.770Z,10.78
2017-04-22T04:05:26.852Z,10.82
2017-04-22T04:05:52.953Z,10.81
2017-04-22T04:06:19.057Z,10.78
2017-04-22T04:06:45.137Z,10.76
2017-04-22T04:07:11.220Z,10.74
2017-04-22T04:07:37.326Z,10.71
2017-04-22T04:08:03.483Z,10.72
2017-04-22T04:08:29.589Z,10.72
2017-04-22T04:08:55.717Z,10.81
2017-04-22T04:09:21.844Z,10.84
2017-04-22T04:09:47.973Z,10.84
2017-04-22T04:10:14.058Z,10.94
2017-04-22T04:10:40.134Z,10.89
2017-04-22T04:11:06.259Z,10.81
2017-04-22T04:11:32.343Z,10.79
2017-04-22T04:11:58.472Z,10.82
2017-04-22T04:12:24.552Z,10.72
2017-04-22T04:12:50.669Z,10.71
2017-04-22T04:13:16.780Z,10.74
2017-04-22T04:13:42.909Z,10.69
2017-04-22T04:14:08.992Z,10.69
2017-04-22T04:14:35.074Z,10.68
2017-04-22T04:15:01.147Z,10.64
2017-04-22T04:15:27.255Z,10.57
2017-04-22T04:15:53.339Z,10.59
2017-04-22T04:16:19.446Z,10.48
2017-04-22T04:16:45.527Z,10.56
2017-04-22T04:17:11.605Z,10.63
2017-04-22T04:17:37.686Z,10.63
2017-04-22T04:18:03.769Z,10.54
2017-04-22T04:18:29.852Z,10.67
2017-04-22T04:18:55.932Z,10.63
2017-04-22T04:19:22.018Z,10.54
2017-04-22T04:19:48.120Z,10.6
2017-04-22T04:20:14.194Z,10.64
2017-04-22T04:20:40.299Z,10.59
2017-04-22T04:21:06.405Z,10.63
2017-04-22T04:21:32.509Z,10.69
2017-04-22T04:21:58.617Z,10.64
2017-04-22T04:22:24.725Z,10.63
2017-04-22T04:22:50.808Z,10.67
2017-04-22T04:23:16.888Z,10.69
2017-04-22T04:23:43.012Z,10.63
2017-04-22T04:24:09.098Z,10.6
2017-04-22T04:24:35.180Z,10.6
2017-04-22T04:25:01.263Z,10.51
2017-04-22T04:25:27.344Z,10.49
2017-04-22T04:25:53.497Z,10.59
2017-04-22T04:26:19.574Z,10.53
2017-04-22T04:26:45.914Z,10.59
2017-04-22T04:27:12.020Z,10.57
2017-04-22T04:27:38.126Z,10.51
2017-04-22T04:28:04.235Z,10.49
2017-04-22T04:28:30.341Z,10.54
2017-04-22T04:28:56.472Z,10.59
2017-04-22T04:29:22.557Z,10.51
2017-04-22T04:29:48.686Z,10.63
2017-04-22T04:30:14.767Z,10.64
2017-04-22T04:30:40.877Z,10.69
2017-04-22T04:31:06.957Z,10.57
2017-04-22T04:31:33.061Z,10.49
2017-04-22T04:31:59.145Z,10.63
2017-04-22T04:32:25.226Z,10.54
2017-04-22T04:32:51.305Z,10.59
2017-04-22T04:33:17.507Z,10.6
2017-04-22T04:33:43.587Z,10.59
2017-04-22T04:34:09.668Z,10.59
2017-04-22T04:34:35.751Z,10.49
2017-04-22T04:35:01.878Z,10.59
2017-04-22T04:35:28.003Z,10.53
2017-04-22T04:35:54.107Z,10.51
2017-04-22T04:36:20.186Z,10.53
2017-04-22T04:36:46.292Z,10.61
2017-04-22T04:37:12.418Z,10.54
2017-04-22T04:37:38.522Z,10.54
2017-04-22T04:38:04.625Z,10.67
2017-04-22T04:38:30.705Z,10.6
2017-04-22T04:38:56.808Z,10.63
2017-04-22T04:39:22.893Z,10.71
2017-04-22T04:39:49.020Z,10.72
2017-04-22T04:40:15.130Z,10.71
2017-04-22T04:40:41.211Z,10.72
2017-04-22T04:41:07.289Z,10.74
2017-04-22T04:41:33.416Z,10.74
2017-04-22T04:41:59.498Z,10.75
2017-04-22T04:42:25.619Z,10.76
2017-04-22T04:42:51.724Z,10.75
2017-04-22T04:43:17.827Z,10.72
2017-04-22T04:43:43.933Z,10.76
2017-04-22T04:44:10.020Z,10.74
2017-04-22T04:44:36.098Z,10.68
2017-04-22T04:45:02.308Z,10.63
2017-04-22T04:45:28.389Z,10.68
2017-04-22T04:45:54.470Z,10.64
2017-04-22T04:46:20.554Z,10.69
2017-04-22T04:46:46.659Z,10.74
2017-04-22T04:47:12.762Z,10.74
2017-04-22T04:47:38.969Z,10.68
2017-04-22T04:48:05.075Z,10.72
2017-04-22T04:48:31.157Z,10.72
2017-04-22T04:48:57.260Z,10.71
2017-04-22T04:49:23.364Z,10.71
2017-04-22T04:49:49.445Z,10.69
2017-04-22T04:50:15.524Z,10.67
2017-04-22T04:50:41.604Z,10.76
2017-04-22T04:51:07.686Z,10.89
2017-04-22T04:51:33.793Z,10.84
2017-04-22T04:51:59.878Z,10.9
2017-04-22T04:52:25.984Z,10.81
2017-04-22T04:52:52.067Z,10.81
2017-04-22T04:53:18.148Z,10.82
2017-04-22T04:53:44.250Z,10.74
2017-04-22T04:54:10.378Z,10.71
2017-04-22T04:54:36.505Z,10.72
2017-04-22T04:55:02.586Z,10.84
2017-04-22T04:55:28.667Z,10.94
2017-04-22T04:55:54.745Z,10.87
2017-04-22T04:56:20.832Z,10.87
2017-04-22T04:56:46.914Z,10.93
2017-04-22T04:57:12.996Z,10.94
2017-04-22T04:57:39.101Z,10.94
2017-04-22T04:58:05.179Z,10.9
2017-04-22T04:58:31.263Z,10.84
2017-04-22T04:58:57.368Z,10.97
2017-04-22T04:59:23.448Z,10.82
2017-04-22T04:59:49.528Z,10.94
2017-04-22T05:00:15.635Z,10.84
2017-04-22T05:00:41.717Z,10.92
2017-04-22T05:01:07.824Z,10.87
2017-04-22T05:01:33.904Z,10.86
2017-04-22T05:01:59.984Z,10.92
2017-04-22T05:02:26.087Z,10.89
2017-04-22T05:02:52.192Z,10.89
2017-04-22T05:03:18.275Z,10.97
2017-04-22T05:03:44.378Z,10.81
2017-04-22T05:04:10.481Z,10.82
2017-04-22T05:04:36.565Z,10.81
2017-04-22T05:05:02.672Z,10.79
2017-04-22T05:05:28.777Z,10.92
2017-04-22T05:05:54.859Z,10.81
2017-04-22T05:06:20.938Z,10.78
2017-04-22T05:06:47.044Z,10.81
2017-04-22T05:07:13.172Z,10.9
2017-04-22T05:07:39.300Z,10.81
2017-04-22T05:08:05.432Z,10.84
2017-04-22T05:08:31.537Z,10.9
2017-04-22T05:08:57.620Z,10.93
2017-04-22T05:09:23.702Z,10.87
2017-04-22T05:09:49.781Z,10.94
2017-04-22T05:10:15.865Z,10.93
2017-04-22T05:10:41.948Z,10.82
2017-04-22T05:11:08.053Z,10.9
2017-04-22T05:11:34.135Z,10.82
2017-04-22T05:12:00.240Z,10.9
2017-04-22T05:12:26.321Z,10.86
2017-04-22T05:12:52.403Z,10.79
2017-04-22T05:13:18.506Z,10.9
2017-04-22T05:13:44.587Z,10.89
2017-04-22T05:14:10.669Z,10.97
2017-04-22T05:14:36.819Z,11
2017-04-22T05:15:02.902Z,10.92
2017-04-22T05:15:29.010Z,11.04
2017-04-22T05:15:55.095Z,10.96
2017-04-22T05:16:21.224Z,11
2017-04-22T05:16:47.326Z,10.93
2017-04-22T05:17:13.406Z,10.94
2017-04-22T05:17:39.488Z,10.87
2017-04-22T05:18:05.956Z,10.92
2017-04-22T05:18:32.148Z,10.94
2017-04-22T05:18:58.255Z,10.96
2017-04-22T05:19:24.356Z,10.97
2017-04-22T05:19:50.460Z,10.97
2017-04-22T05:20:16.563Z,11
2017-04-22T05:20:42.645Z,10.96
2017-04-22T05:21:08.729Z,11
2017-04-22T05:21:34.832Z,11
2017-04-22T05:22:00.936Z,11.14
2017-04-22T05:22:27.039Z,11.07
2017-04-22T05:22:53.145Z,11.07
2017-04-22T05:23:19.300Z,10.99
2017-04-22T05:23:45.689Z,11.08
2017-04-22T05:24:11.795Z,11.19
2017-04-22T05:24:37.947Z,11.17
2017-04-22T05:25:04.051Z,11.17
2017-04-22T05:25:30.136Z,11.1
2017-04-22T05:25:56.219Z,11.14
2017-04-22T05:26:22.323Z,11.18
2017-04-22T05:26:48.404Z,11.17
2017-04-22T05:27:14.511Z,11.25
2017-04-22T05:27:40.594Z,11.25
2017-04-22T05:28:06.697Z,11.29
2017-04-22T05:28:32.976Z,11.27
2017-04-22T05:28:59.077Z,11.25
2017-04-22T05:29:25.181Z,11.27
2017-04-22T05:29:51.538Z,11.27
2017-04-22T05:30:17.647Z,11.23
2017-04-22T05:30:43.728Z,11.23
2017-04-22T05:31:09.857Z,11.19
2017-04-22T05:31:35.962Z,11.12
2017-04-22T05:32:02.043Z,11.22
2017-04-22T05:32:28.189Z,11.22
2017-04-22T05:32:54.340Z,11.19
2017-04-22T05:33:20.425Z,11.17
2017-04-22T05:33:46.507Z,11.23
2017-04-22T05:34:12.608Z,11.22
2017-04-22T05:34:38.691Z,11.25
2017-04-22T05:35:04.774Z,11.29
2017-04-22T05:35:30.881Z,11.3
2017-04-22T05:35:56.984Z,11.3
2017-04-22T05:36:23.091Z,11.23
2017-04-22T05:36:49.191Z,11.27
2017-04-22T05:37:15.295Z,11.29
2017-04-22T05:37:41.375Z,11.35
2017-04-22T05:38:07.454Z,11.33